Time;durP1;ratioP1;P1;durP2;ratioP2;P2;SDS_P1;SDS_P2;PMS_P1;PMS_P2;Temp;Humidity;BMP_temperature;BMP_pressure;BME280_temperature;BME280_humidity;BME280_pressure;Samples;Min_cycle;Max_cycle;Signal;HPM_P1;HPM_P2
2022/04/09 00:01:21;;;;;;;8.23;1.63;;;5.80;99.90;;;;;;5059077;28;40129;-49
2022/04/09 00:03:52;;;;;;;12.88;1.98;;;5.80;99.90;;;;;;5059893;28;38273;-50
2022/04/09 00:06:23;;;;;;;6.78;1.60;;;5.70;99.90;;;;;;5062159;28;38265;-50
2022/04/09 00:08:50;;;;;;;10.30;2.00;;;5.70;99.90;;;;;;5061677;28;35249;-50
2022/04/09 00:11:18;;;;;;;11.27;2.38;;;5.70;99.90;;;;;;5062764;28;37417;-51
2022/04/09 00:13:45;;;;;;;12.32;1.80;;;5.60;99.90;;;;;;5064040;28;40663;-57
2022/04/09 00:16:13;;;;;;;11.60;2.00;;;5.60;99.90;;;;;;5064965;28;38501;-57
2022/04/09 00:18:44;;;;;;;9.40;2.20;;;5.60;99.90;;;;;;5064141;28;36250;-57
2022/04/09 00:21:13;;;;;;;9.13;1.92;;;5.60;99.90;;;;;;5063880;28;37406;-57
2022/04/09 00:23:40;;;;;;;8.55;1.88;;;5.60;99.90;;;;;;5064544;28;38608;-50
2022/04/09 00:26:08;;;;;;;10.93;1.92;;;5.60;99.90;;;;;;5063697;28;37835;-56
2022/04/09 00:28:35;;;;;;;9.57;2.08;;;5.60;99.90;;;;;;5063921;28;35329;-57
2022/04/09 00:31:02;;;;;;;8.15;1.77;;;5.60;99.90;;;;;;5064137;28;37915;-57
2022/04/09 00:33:30;;;;;;;9.45;1.70;;;5.60;99.90;;;;;;5062895;28;38178;-51
2022/04/09 00:35:57;;;;;;;12.80;2.78;;;5.60;99.90;;;;;;5063608;28;37858;-56
2022/04/09 00:38:27;;;;;;;12.45;1.75;;;5.60;99.90;;;;;;5064197;28;37411;-57
2022/04/09 00:40:55;;;;;;;6.68;1.48;;;5.60;99.90;;;;;;5064255;28;38179;-51
2022/04/09 00:43:22;;;;;;;5.70;1.50;;;5.70;99.90;;;;;;5063455;28;40417;-48
2022/04/09 00:45:50;;;;;;;7.90;1.27;;;5.70;99.90;;;;;;5062840;28;38211;-51
2022/04/09 00:48:20;;;;;;;10.00;1.25;;;5.70;99.90;;;;;;5063854;28;36710;-56
2022/04/09 00:50:48;;;;;;;8.00;1.45;;;5.80;99.90;;;;;;5063372;28;37379;-57
2022/04/09 00:53:17;;;;;;;10.63;1.50;;;5.80;99.90;;;;;;5062289;28;39027;-56
2022/04/09 00:58:31;;;;;;;3.15;0.65;;;5.70;99.90;;;;;;5063405;28;37477;-47
2022/04/09 01:00:59;;;;;;;4.68;0.77;;;5.60;99.90;;;;;;5063127;28;38198;-57
2022/04/09 01:03:29;;;;;;;4.72;0.77;;;5.60;99.90;;;;;;5062259;28;38201;-57
2022/04/09 01:05:56;;;;;;;7.90;0.90;;;5.50;99.90;;;;;;5062745;28;38041;-56
2022/04/09 01:08:25;;;;;;;6.13;1.30;;;5.50;99.90;;;;;;5063676;28;36530;-56
2022/04/09 01:10:53;;;;;;;5.28;1.08;;;5.50;99.90;;;;;;5063066;28;36402;-57
2022/04/09 01:13:21;;;;;;;7.18;1.08;;;5.40;99.90;;;;;;5062613;28;37592;-57
2022/04/09 01:15:49;;;;;;;7.80;1.13;;;5.40;99.90;;;;;;5062893;28;36621;-58
2022/04/09 01:18:21;;;;;;;7.85;1.50;;;5.40;99.90;;;;;;5063428;28;36240;-56
2022/04/09 01:20:48;;;;;;;7.85;1.25;;;5.40;99.90;;;;;;5061692;28;37500;-56
2022/04/09 01:23:17;;;;;;;5.22;1.60;;;5.30;99.90;;;;;;5062971;28;38681;-57
2022/04/09 01:25:45;;;;;;;10.13;1.80;;;5.30;99.90;;;;;;5062671;28;38704;-56
2022/04/09 01:28:12;;;;;;;9.82;1.52;;;5.30;99.90;;;;;;5063815;28;36618;-56
2022/04/09 01:30:40;;;;;;;6.75;2.25;;;5.30;99.90;;;;;;5063422;28;36274;-56
2022/04/09 01:33:07;;;;;;;9.57;1.40;;;5.30;99.90;;;;;;5063404;28;38374;-51
2022/04/09 01:35:34;;;;;;;9.02;1.63;;;5.30;99.90;;;;;;5061528;28;39505;-49
2022/04/09 01:38:02;;;;;;;8.40;1.67;;;5.20;99.90;;;;;;5062569;28;35461;-50
2022/04/09 01:40:30;;;;;;;10.02;1.48;;;5.30;99.90;;;;;;5062966;28;38079;-51
2022/04/09 01:42:58;;;;;;;10.35;1.40;;;5.20;99.90;;;;;;5063836;28;39093;-51
2022/04/09 01:45:27;;;;;;;8.77;1.10;;;5.20;99.90;;;;;;5062576;28;37736;-48
2022/04/09 01:47:55;;;;;;;10.15;1.42;;;5.20;99.90;;;;;;5061694;28;36916;-56
2022/04/09 01:50:22;;;;;;;13.80;1.55;;;5.20;99.90;;;;;;5062024;28;37706;-57
2022/04/09 01:52:52;;;;;;;9.88;1.65;;;5.10;99.90;;;;;;5061491;28;39475;-51
2022/04/09 01:55:20;;;;;;;9.98;1.45;;;5.20;99.90;;;;;;5061169;28;38695;-56
2022/04/09 01:57:49;;;;;;;7.90;1.50;;;5.10;99.90;;;;;;5062381;28;37151;-57
2022/04/09 02:00:17;;;;;;;7.45;1.27;;;5.10;99.90;;;;;;5061739;28;37693;-56
2022/04/09 02:02:45;;;;;;;8.23;1.52;;;5.20;99.90;;;;;;5061572;28;40376;-56
2022/04/09 02:05:14;;;;;;;9.77;1.40;;;5.30;99.90;;;;;;5060923;28;37834;-57
2022/04/09 02:07:43;;;;;;;11.05;1.52;;;5.30;99.90;;;;;;5061694;28;36928;-56
2022/04/09 02:10:12;;;;;;;7.63;1.17;;;5.30;99.90;;;;;;5061944;28;39608;-49
2022/04/09 02:12:39;;;;;;;8.98;1.35;;;5.30;99.90;;;;;;5061425;28;39033;-56
2022/04/09 02:15:11;;;;;;;8.95;1.40;;;5.30;99.90;;;;;;5060622;28;37960;-57
2022/04/09 02:17:39;;;;;;;8.57;1.75;;;5.20;99.90;;;;;;5062017;28;36827;-56
2022/04/09 02:20:08;;;;;;;11.20;1.45;;;5.20;99.90;;;;;;5061653;28;37936;-56
2022/04/09 02:22:36;;;;;;;7.63;1.70;;;5.20;99.90;;;;;;5061681;28;38674;-57
2022/04/09 02:25:03;;;;;;;6.43;1.30;;;5.20;99.90;;;;;;5061037;28;37615;-56
2022/04/09 02:27:31;;;;;;;9.63;1.65;;;5.20;99.90;;;;;;5061923;28;36663;-51
2022/04/09 02:29:58;;;;;;;10.93;1.67;;;5.20;99.90;;;;;;5061161;28;37971;-51
2022/04/09 02:32:27;;;;;;;5.88;1.55;;;5.20;99.90;;;;;;5061117;28;37057;-50
2022/04/09 02:34:56;;;;;;;8.95;1.98;;;5.10;99.90;;;;;;5063226;28;38450;-56
2022/04/09 02:37:24;;;;;;;11.40;1.55;;;5.20;99.90;;;;;;5068551;28;36391;-57
2022/04/09 02:39:55;;;;;;;11.80;1.70;;;5.20;99.90;;;;;;5070096;28;20049;-56
2022/04/09 02:42:22;;;;;;;11.02;1.10;;;5.00;99.90;;;;;;5068579;28;36894;-56
2022/04/09 02:44:50;;;;;;;10.68;2.08;;;5.20;99.90;;;;;;5067784;28;37598;-51
2022/04/09 02:47:21;;;;;;;8.07;1.50;;;5.30;99.90;;;;;;5069759;28;36692;-49
2022/04/09 02:49:50;;;;;;;8.77;1.42;;;5.30;99.90;;;;;;5070139;28;38404;-50
2022/04/09 02:52:17;;;;;;;9.55;1.67;;;5.30;99.90;;;;;;5069937;28;38991;-56
2022/04/09 02:54:44;;;;;;;9.35;1.90;;;5.20;99.90;;;;;;5068927;28;38474;-56
2022/04/09 02:57:12;;;;;;;8.35;1.63;;;5.20;99.90;;;;;;5069780;28;36617;-57
2022/04/09 02:59:39;;;;;;;7.97;1.50;;;5.20;99.90;;;;;;5069804;28;38358;-57
2022/04/09 03:02:06;;;;;;;10.40;1.77;;;5.20;99.90;;;;;;5069977;28;38308;-50
2022/04/09 03:04:34;;;;;;;13.55;1.50;;;5.30;99.90;;;;;;5068839;28;38334;-51
2022/04/09 03:07:02;;;;;;;14.73;3.28;;;5.30;99.90;;;;;;5069813;28;35403;-49
2022/04/09 03:09:30;;;;;;;9.55;2.70;;;5.40;99.90;;;;;;5069728;28;36304;-51
2022/04/09 03:11:57;;;;;;;11.40;1.33;;;5.30;99.90;;;;;;5068967;28;38475;-50
2022/04/09 03:14:25;;;;;;;10.85;1.60;;;5.40;99.90;;;;;;5069110;28;39249;-57
2022/04/09 03:16:52;;;;;;;11.07;1.50;;;5.30;99.90;;;;;;5069607;28;36984;-52
2022/04/09 03:19:20;;;;;;;7.82;1.60;;;5.40;99.90;;;;;;5069431;28;38080;-56
2022/04/09 03:21:47;;;;;;;9.82;1.40;;;5.40;99.90;;;;;;5069876;28;38522;-50
2022/04/09 03:24:16;;;;;;;7.55;1.85;;;5.30;99.90;;;;;;5069026;28;37706;-57
2022/04/09 03:26:43;;;;;;;6.18;1.10;;;5.30;99.90;;;;;;5069746;28;35315;-55
2022/04/09 03:29:10;;;;;;;6.10;1.23;;;5.30;99.90;;;;;;5069900;28;38020;-56
2022/04/09 03:31:38;;;;;;;7.15;0.95;;;5.30;99.90;;;;;;5068598;28;38042;-56
2022/04/09 03:34:05;;;;;;;8.45;1.38;;;5.30;99.90;;;;;;5068393;28;39080;-56
2022/04/09 03:36:33;;;;;;;8.75;1.33;;;5.20;99.90;;;;;;5068656;28;37316;-56
2022/04/09 03:39:01;;;;;;;9.85;1.33;;;5.20;99.90;;;;;;5068584;28;37891;-56
2022/04/09 03:41:29;;;;;;;8.13;1.40;;;5.20;99.90;;;;;;5068610;28;36835;-51
2022/04/09 03:43:57;;;;;;;11.18;1.33;;;5.20;99.90;;;;;;5068075;28;37902;-49
2022/04/09 03:46:24;;;;;;;10.27;1.60;;;5.10;99.90;;;;;;5067580;28;37223;-51
2022/04/09 03:48:52;;;;;;;7.80;1.77;;;5.10;99.90;;;;;;5068334;28;36596;-49
2022/04/09 03:51:22;;;;;;;9.23;1.50;;;5.10;99.90;;;;;;5068695;28;37091;-51
2022/04/09 03:53:50;;;;;;;3.60;0.82;;;5.10;99.90;;;;;;5066671;28;38075;-50
2022/04/09 03:56:17;;;;;;;11.07;1.38;;;5.10;99.90;;;;;;5067714;28;36200;-49
2022/04/09 03:58:48;;;;;;;9.60;1.50;;;5.10;99.90;;;;;;5067937;28;38263;-49
2022/04/09 04:01:16;;;;;;;9.30;1.63;;;5.10;99.90;;;;;;5068495;28;37727;-51
2022/04/09 04:03:44;;;;;;;8.35;1.05;;;5.00;99.90;;;;;;5067085;28;40270;-50
2022/04/09 04:06:11;;;;;;;6.95;1.10;;;5.10;99.90;;;;;;5069733;28;36719;-52
2022/04/09 04:08:39;;;;;;;6.65;1.27;;;5.00;99.90;;;;;;5069088;28;39159;-50
2022/04/09 04:11:06;;;;;;;6.07;1.00;;;5.00;99.90;;;;;;5069224;28;38985;-49
2022/04/09 04:13:38;;;;;;;4.82;0.93;;;5.00;99.90;;;;;;5068774;28;38742;-49
2022/04/09 04:16:08;;;;;;;2.83;0.98;;;5.00;99.90;;;;;;5069587;28;37675;-48
2022/04/09 04:18:36;;;;;;;11.63;1.52;;;5.00;99.90;;;;;;5068646;28;37469;-51
2022/04/09 04:21:04;;;;;;;7.25;1.13;;;5.00;99.90;;;;;;5069405;28;38018;-48
2022/04/09 04:23:34;;;;;;;5.55;0.93;;;5.10;99.90;;;;;;5069522;28;37761;-50
2022/04/09 04:26:02;;;;;;;6.18;1.05;;;5.00;99.90;;;;;;5068956;28;37207;-50
2022/04/09 04:28:32;;;;;;;7.22;1.20;;;5.10;99.90;;;;;;5069240;28;36272;-48
2022/04/09 04:30:59;;;;;;;6.45;1.00;;;5.10;99.90;;;;;;5069137;28;38258;-50
2022/04/09 04:33:28;;;;;;;6.78;1.30;;;5.10;99.90;;;;;;5066957;28;38457;-49
2022/04/09 04:35:58;;;;;;;6.72;2.45;;;5.10;99.90;;;;;;5068166;28;37487;-49
2022/04/09 04:38:27;;;;;;;6.28;1.70;;;5.10;99.90;;;;;;5068122;28;37487;-56
2022/04/09 04:40:55;;;;;;;26.52;2.67;;;5.00;99.90;;;;;;5068489;28;38644;-57
2022/04/09 04:43:23;;;;;;;8.77;1.40;;;5.10;99.90;;;;;;5069511;28;36717;-51
2022/04/09 04:45:50;;;;;;;8.88;1.38;;;5.00;99.90;;;;;;5067960;28;36281;-56
2022/04/09 04:48:20;;;;;;;8.40;1.33;;;4.90;99.90;;;;;;5069150;28;38529;-49
2022/04/09 04:50:49;;;;;;;9.40;1.20;;;5.00;99.90;;;;;;5068083;28;38613;-48
2022/04/09 04:53:16;;;;;;;11.48;1.70;;;5.00;99.90;;;;;;5068319;28;37262;-49
2022/04/09 04:55:44;;;;;;;7.88;1.23;;;4.90;99.90;;;;;;5066752;28;37111;-49
2022/04/09 04:58:12;;;;;;;9.07;1.38;;;4.90;99.90;;;;;;5068291;28;37373;-51
2022/04/09 05:00:39;;;;;;;8.20;1.88;;;4.90;99.90;;;;;;5068464;28;37961;-48
2022/04/09 05:03:06;;;;;;;8.77;1.77;;;4.90;99.90;;;;;;5067626;28;37888;-50
2022/04/09 05:05:34;;;;;;;6.65;1.27;;;4.90;99.90;;;;;;5067257;28;36478;-50
2022/04/09 05:08:03;;;;;;;7.80;1.25;;;4.80;99.90;;;;;;5068589;28;38522;-47
2022/04/09 05:10:30;;;;;;;6.85;1.40;;;4.90;99.90;;;;;;5068469;28;36847;-51
2022/04/09 05:12:59;;;;;;;7.30;1.10;;;4.90;99.90;;;;;;5067702;28;37633;-47
2022/04/09 05:15:26;;;;;;;9.32;1.35;;;5.00;99.90;;;;;;5067780;28;36593;-52
2022/04/09 05:17:54;;;;;;;10.20;1.42;;;5.20;99.90;;;;;;5067481;28;37432;-47
2022/04/09 05:20:24;;;;;;;11.85;2.60;;;5.50;99.90;;;;;;5067390;28;39159;-48
2022/04/09 05:22:51;;;;;;;8.10;1.20;;;5.70;99.90;;;;;;5066665;28;38036;-48
2022/04/09 05:25:21;;;;;;;6.90;1.55;;;5.80;99.90;;;;;;5066538;28;37617;-49
2022/04/09 05:27:48;;;;;;;8.07;1.70;;;5.80;99.90;;;;;;5067977;28;37468;-51
2022/04/09 05:30:18;;;;;;;7.10;2.08;;;5.80;99.90;;;;;;5066735;28;37208;-56
2022/04/09 05:32:48;;;;;;;9.25;1.33;;;5.70;99.90;;;;;;5067681;28;39224;-56
2022/04/09 05:35:16;;;;;;;11.27;2.05;;;5.60;99.90;;;;;;5066779;28;36198;-57
2022/04/09 05:37:45;;;;;;;9.30;1.40;;;5.60;99.90;;;;;;5068403;28;37350;-57
2022/04/09 05:40:13;;;;;;;13.15;1.73;;;5.60;99.90;;;;;;5067054;28;36885;-56
2022/04/09 05:42:42;;;;;;;6.47;1.10;;;5.60;99.90;;;;;;5068182;28;36719;-56
2022/04/09 05:45:11;;;;;;;12.75;1.40;;;5.60;99.90;;;;;;5065397;28;35346;-55
2022/04/09 05:47:40;;;;;;;9.90;1.85;;;5.70;99.90;;;;;;5067667;28;35586;-56
2022/04/09 05:50:11;;;;;;;7.32;1.33;;;5.70;99.90;;;;;;5066668;28;39474;-57
2022/04/09 05:52:39;;;;;;;11.13;1.80;;;5.70;99.90;;;;;;5065272;28;37995;-51
2022/04/09 05:55:08;;;;;;;9.50;1.70;;;5.70;99.90;;;;;;5066524;28;35350;-49
2022/04/09 05:57:35;;;;;;;8.40;1.45;;;5.80;99.90;;;;;;5066067;28;36086;-57
2022/04/09 06:00:06;;;;;;;11.00;2.08;;;5.90;99.90;;;;;;5064997;28;38498;-57
2022/04/09 06:02:35;;;;;;;7.97;1.63;;;5.90;99.90;;;;;;5063108;28;37833;-52
2022/04/09 06:05:02;;;;;;;9.18;1.30;;;5.90;99.90;;;;;;5064731;28;36052;-51
2022/04/09 06:07:30;;;;;;;12.07;1.83;;;5.90;99.90;;;;;;5065375;28;38006;-57
2022/04/09 06:09:58;;;;;;;13.57;3.75;;;5.90;99.90;;;;;;5066963;28;38427;-57
2022/04/09 06:12:25;;;;;;;18.35;3.08;;;6.00;99.90;;;;;;5068870;28;37946;-57
2022/04/09 06:14:53;;;;;;;20.75;3.75;;;6.00;99.90;;;;;;5069858;28;38043;-57
2022/04/09 06:17:25;;;;;;;16.08;2.70;;;6.00;99.90;;;;;;5069724;28;37285;-57
2022/04/09 06:19:52;;;;;;;15.20;2.83;;;6.20;99.90;;;;;;5070812;28;38421;-57
2022/04/09 06:22:19;;;;;;;12.75;2.25;;;7.10;99.90;;;;;;5070085;28;38523;-57
2022/04/09 06:24:49;;;;;;;14.63;2.20;;;7.90;99.90;;;;;;5069479;28;36500;-57
2022/04/09 06:27:17;;;;;;;8.93;1.80;;;8.30;99.90;;;;;;5069962;28;36365;-57
2022/04/09 06:29:44;;;;;;;11.48;2.17;;;8.10;99.50;;;;;;5070311;28;39376;-57
2022/04/09 06:32:12;;;;;;;10.98;2.40;;;7.80;99.60;;;;;;5069824;28;37817;-57
2022/04/09 06:34:43;;;;;;;10.05;1.88;;;7.60;99.90;;;;;;5068055;28;38127;-57
2022/04/09 06:37:12;;;;;;;12.57;2.45;;;7.70;99.90;;;;;;5070825;28;36836;-51
2022/04/09 06:39:39;;;;;;;13.05;1.80;;;7.80;99.90;;;;;;5070429;28;37168;-51
2022/04/09 06:42:07;;;;;;;11.38;2.35;;;7.70;99.90;;;;;;5070429;28;40094;-51
2022/04/09 06:44:37;;;;;;;9.38;2.03;;;7.50;99.90;;;;;;5069856;28;36671;-51
2022/04/09 06:47:08;;;;;;;15.18;2.72;;;7.40;99.90;;;;;;5070543;28;36445;-51
2022/04/09 06:49:37;;;;;;;14.90;2.95;;;7.30;99.90;;;;;;5070005;28;41347;-48
2022/04/09 06:52:16;;;;;;;17.52;2.45;;;7.30;99.90;;;;;;5070080;28;36727;-49
2022/04/09 06:54:43;;;;;;;15.80;2.42;;;7.30;99.90;;;;;;5069666;28;36418;-51
2022/04/09 06:57:10;;;;;;;10.90;1.90;;;7.40;99.90;;;;;;5070054;28;36376;-49
2022/04/09 06:59:38;;;;;;;12.65;2.92;;;7.60;99.90;;;;;;5063281;28;38242;-50
2022/04/09 07:02:05;;;;;;;10.52;1.88;;;7.90;99.90;;;;;;5063100;28;36736;-52
2022/04/09 07:04:33;;;;;;;8.00;1.55;;;8.20;99.90;;;;;;5064901;28;36435;-52
2022/04/09 07:07:04;;;;;;;10.40;2.05;;;8.50;99.60;;;;;;5065369;28;37950;-57
2022/04/09 07:09:32;;;;;;;13.70;3.30;;;8.80;99.00;;;;;;5065287;28;39181;-58
2022/04/09 07:12:00;;;;;;;12.23;1.77;;;9.10;98.40;;;;;;5063781;28;38580;-58
2022/04/09 07:14:27;;;;;;;13.25;2.08;;;9.10;97.70;;;;;;5062608;28;36789;-57
2022/04/09 07:16:58;;;;;;;10.27;1.40;;;9.00;97.10;;;;;;5065254;28;41590;-57
2022/04/09 07:19:26;;;;;;;7.60;1.38;;;8.90;97.10;;;;;;5061229;28;39213;-58
2022/04/09 07:21:53;;;;;;;12.88;1.85;;;9.20;97.00;;;;;;5064636;28;39230;-58
2022/04/09 07:24:21;;;;;;;8.05;1.30;;;9.20;96.40;;;;;;5065191;28;35901;-58
2022/04/09 07:26:50;;;;;;;9.52;1.75;;;9.30;96.60;;;;;;5064894;28;37709;-58
2022/04/09 07:29:17;;;;;;;8.68;1.55;;;9.40;96.40;;;;;;5065175;28;38038;-58
2022/04/09 07:31:48;;;;;;;9.52;1.60;;;9.40;96.10;;;;;;5065010;28;38146;-58
2022/04/09 07:34:15;;;;;;;10.43;1.58;;;9.20;95.60;;;;;;5063479;28;36057;-57
2022/04/09 07:36:42;;;;;;;7.25;1.50;;;9.00;96.10;;;;;;5065499;28;37746;-58
2022/04/09 07:39:13;;;;;;;8.82;1.70;;;8.70;96.30;;;;;;5064763;28;37002;-57
2022/04/09 07:41:40;;;;;;;7.25;1.60;;;8.70;97.20;;;;;;5064997;28;37520;-58
2022/04/09 07:44:09;;;;;;;10.65;1.75;;;8.90;98.10;;;;;;5065051;28;35346;-52
2022/04/09 07:46:38;;;;;;;6.10;1.10;;;8.90;97.60;;;;;;5064911;28;36548;-50
2022/04/09 07:49:06;;;;;;;10.07;1.63;;;8.70;97.10;;;;;;5064822;28;38266;-52
2022/04/09 07:51:33;;;;;;;7.55;1.90;;;8.70;97.80;;;;;;5063390;28;38300;-52
2022/04/09 07:54:01;;;;;;;13.55;1.90;;;8.80;98.20;;;;;;5063867;28;37725;-51
2022/04/09 07:56:28;;;;;;;11.05;1.83;;;9.10;98.40;;;;;;5063683;28;39215;-52
2022/04/09 07:58:55;;;;;;;16.08;2.30;;;9.50;98.50;;;;;;5063454;28;37981;-51
2022/04/09 08:01:24;;;;;;;12.93;2.20;;;9.90;97.60;;;;;;5067021;28;39257;-52
2022/04/09 08:03:52;;;;;;;11.20;1.88;;;10.20;97.50;;;;;;5067880;28;36689;-57
2022/04/09 08:06:19;;;;;;;11.77;2.58;;;10.40;97.00;;;;;;5068722;28;38286;-52
2022/04/09 08:08:47;;;;;;;8.30;1.67;;;10.40;96.00;;;;;;5068516;28;36910;-52
2022/04/09 08:11:14;;;;;;;9.45;2.25;;;10.50;95.90;;;;;;5068687;28;38961;-50
2022/04/09 08:13:41;;;;;;;10.65;2.25;;;10.50;94.30;;;;;;5067044;28;37390;-51
2022/04/09 08:16:09;;;;;;;11.02;1.90;;;10.30;93.60;;;;;;5067998;28;36465;-52
2022/04/09 08:18:39;;;;;;;12.25;1.77;;;10.10;93.30;;;;;;5067861;28;38128;-51
2022/04/09 08:21:07;;;;;;;8.68;1.70;;;9.90;93.10;;;;;;5067437;28;39022;-51
2022/04/09 08:23:35;;;;;;;15.50;2.25;;;10.20;93.10;;;;;;5066587;28;35424;-52
2022/04/09 08:26:02;;;;;;;9.80;1.80;;;10.70;92.60;;;;;;5067110;28;38621;-52
2022/04/09 08:28:32;;;;;;;9.27;1.63;;;10.90;91.50;;;;;;5066977;28;37095;-52
2022/04/09 08:31:00;;;;;;;9.95;2.10;;;10.70;91.40;;;;;;5067373;28;38261;-58
2022/04/09 08:33:27;;;;;;;10.70;2.08;;;10.60;91.20;;;;;;5067194;28;37242;-57
2022/04/09 08:35:56;;;;;;;9.32;1.83;;;11.00;91.20;;;;;;5066194;28;37090;-57
2022/04/09 08:38:26;;;;;;;10.43;2.05;;;11.70;90.70;;;;;;5067100;28;38294;-57
2022/04/09 08:40:54;;;;;;;10.73;2.25;;;12.10;88.30;;;;;;5067566;28;38060;-51
2022/04/09 08:43:21;;;;;;;12.10;1.65;;;12.10;86.00;;;;;;5068323;28;37864;-51
2022/04/09 08:45:50;;;;;;;12.48;2.08;;;11.70;85.00;;;;;;5066886;28;38437;-51
2022/04/09 08:48:21;;;;;;;11.45;3.60;;;11.50;84.80;;;;;;5066994;28;38031;-51
2022/04/09 08:50:49;;;;;;;14.05;2.92;;;11.30;85.60;;;;;;5066454;28;38769;-47
2022/04/09 08:53:18;;;;;;;8.93;1.38;;;11.00;85.70;;;;;;5066838;28;35368;-52
2022/04/09 08:55:48;;;;;;;3.67;0.63;;;10.70;85.60;;;;;;5065391;28;37249;-51
2022/04/09 08:58:15;;;;;;;6.28;1.20;;;10.20;85.00;;;;;;5067281;28;38840;-52
2022/04/09 09:00:45;;;;;;;8.32;1.65;;;9.70;86.70;;;;;;5067677;28;37816;-52
2022/04/09 09:03:15;;;;;;;4.85;0.90;;;9.20;88.60;;;;;;5068193;28;37418;-48
2022/04/09 09:05:45;;;;;;;4.70;0.80;;;8.80;90.30;;;;;;5067097;28;36458;-51
2022/04/09 09:08:13;;;;;;;9.48;1.25;;;8.60;91.40;;;;;;5068067;28;38220;-51
2022/04/09 09:10:43;;;;;;;4.03;1.02;;;8.90;92.50;;;;;;5067763;28;37634;-52
2022/04/09 09:13:12;;;;;;;9.50;1.00;;;9.50;92.70;;;;;;5068596;28;35255;-52
2022/04/09 09:15:51;;;;;;;4.15;1.00;;;9.90;91.70;;;;;;5066859;28;39061;-49
2022/04/09 09:18:21;;;;;;;6.30;1.23;;;10.10;91.50;;;;;;5068407;28;37835;-48
2022/04/09 09:20:52;;;;;;;6.95;1.27;;;10.60;90.60;;;;;;5066870;28;36561;-49
2022/04/09 09:23:24;;;;;;;4.43;1.10;;;10.70;88.40;;;;;;5067422;28;35396;-52
2022/04/09 09:25:55;;;;;;;12.02;1.67;;;10.90;89.50;;;;;;5067404;28;38328;-51
2022/04/09 09:28:24;;;;;;;9.45;1.40;;;11.40;87.70;;;;;;5068170;28;39403;-51
2022/04/09 09:30:51;;;;;;;8.10;1.60;;;11.90;86.50;;;;;;5067846;28;36516;-52
2022/04/09 09:33:20;;;;;;;8.82;2.05;;;12.40;85.70;;;;;;5066051;28;36834;-52
2022/04/09 09:35:51;;;;;;;8.65;1.85;;;12.80;83.70;;;;;;5066269;28;38151;-51
2022/04/09 09:38:19;;;;;;;12.90;2.33;;;12.90;82.00;;;;;;5067718;28;38086;-51
2022/04/09 09:40:47;;;;;;;9.18;1.83;;;13.00;80.20;;;;;;5067155;28;37778;-52
2022/04/09 09:43:17;;;;;;;7.13;1.67;;;12.90;78.90;;;;;;5067454;28;36788;-53
2022/04/09 09:45:44;;;;;;;9.57;1.60;;;12.30;78.10;;;;;;5067630;28;36161;-57
2022/04/09 09:48:25;;;;;;;8.38;2.40;;;11.50;78.40;;;;;;5067080;28;39048;-51
2022/04/09 09:50:53;;;;;;;6.75;1.55;;;10.90;80.90;;;;;;5067218;28;37711;-50
2022/04/09 09:53:29;;;;;;;3.72;0.82;;;10.30;82.60;;;;;;5068028;28;37376;-51
2022/04/09 09:55:58;;;;;;;2.88;0.70;;;9.90;85.00;;;;;;5066890;28;36910;-50
2022/04/09 09:58:28;;;;;;;2.80;0.20;;;9.90;88.80;;;;;;5067982;28;36897;-50
2022/04/09 10:00:57;;;;;;;2.85;0.30;;;10.20;89.00;;;;;;5067606;28;39583;-56
2022/04/09 10:03:25;;;;;;;2.03;0.40;;;10.40;88.70;;;;;;5067345;28;36427;-58
2022/04/09 10:05:53;;;;;;;1.08;0.22;;;10.80;88.20;;;;;;5066944;28;38363;-57
2022/04/09 10:08:22;;;;;;;1.67;0.40;;;11.10;87.20;;;;;;5067690;28;38652;-50
2022/04/09 10:10:50;;;;;;;1.13;0.30;;;11.40;85.40;;;;;;5065328;28;37823;-50
2022/04/09 10:13:21;;;;;;;1.88;0.43;;;11.60;83.60;;;;;;5065923;28;37184;-51
2022/04/09 10:15:51;;;;;;;3.90;0.60;;;11.80;81.40;;;;;;5063938;28;38173;-57
2022/04/09 10:18:23;;;;;;;2.25;0.52;;;12.10;80.30;;;;;;5062298;28;38300;-57
2022/04/09 10:20:53;;;;;;;4.57;0.70;;;12.40;78.50;;;;;;5064693;28;36918;-52
2022/04/09 10:23:22;;;;;;;8.20;1.08;;;12.60;77.00;;;;;;5066655;28;37266;-49
2022/04/09 10:25:52;;;;;;;4.50;1.00;;;12.60;75.00;;;;;;5067561;28;38974;-52
2022/04/09 10:28:34;;;;;;;5.88;1.25;;;12.60;75.20;;;;;;5066987;28;37031;-51
2022/04/09 10:31:03;;;;;;;4.85;0.90;;;12.60;75.70;;;;;;5066186;28;37764;-52
2022/04/09 10:33:36;;;;;;;7.03;1.15;;;12.70;77.10;;;;;;5063693;28;37066;-52
2022/04/09 10:36:04;;;;;;;4.97;1.57;;;12.60;76.80;;;;;;5066382;28;36702;-50
2022/04/09 10:38:33;;;;;;;4.40;1.10;;;12.40;77.30;;;;;;5064996;28;37976;-57
2022/04/09 10:41:32;;;;;;;7.03;1.40;;;12.20;77.50;;;;;;5066237;28;37565;-57
2022/04/09 10:44:00;;;;;;;6.22;0.88;;;12.20;77.00;;;;;;5066511;28;37157;-49
2022/04/09 10:46:38;;;;;;;4.35;0.93;;;12.10;78.00;;;;;;5067013;28;36386;-57
2022/04/09 10:49:25;;;;;;;4.38;0.73;;;12.10;78.80;;;;;;5064043;28;38418;-57
2022/04/09 10:52:15;;;;;;;7.30;1.08;;;12.20;78.60;;;;;;5064552;28;38822;-57
2022/04/09 10:55:03;;;;;;;5.45;1.48;;;12.40;78.10;;;;;;5067961;28;36407;-52
2022/04/09 10:57:42;;;;;;;5.60;1.85;;;12.60;77.90;;;;;;5068485;28;37004;-51
2022/04/09 11:00:30;;;;;;;6.45;1.30;;;12.80;76.70;;;;;;5067697;28;39097;-57
2022/04/09 11:03:31;;;;;;;6.25;0.95;;;12.90;74.70;;;;;;5064722;28;37412;-51
2022/04/09 11:06:32;;;;;;;8.77;1.38;;;12.80;75.70;;;;;;5068644;28;35308;-57
2022/04/09 11:09:00;;;;;;;5.80;1.58;;;12.60;74.30;;;;;;5068837;28;35917;-50
2022/04/09 11:11:28;;;;;;;6.53;1.23;;;12.40;75.10;;;;;;5068678;28;37020;-52
2022/04/09 11:13:56;;;;;;;9.10;1.85;;;12.20;74.80;;;;;;5068843;28;38757;-58
2022/04/09 11:16:23;;;;;;;8.80;1.60;;;11.90;74.70;;;;;;5069749;28;36329;-49
2022/04/09 11:18:52;;;;;;;9.10;1.85;;;11.80;76.20;;;;;;5068902;28;37830;-52
2022/04/09 11:21:20;;;;;;;9.45;1.38;;;11.50;77.90;;;;;;5067133;28;38309;-52
2022/04/09 11:23:47;;;;;;;11.73;2.35;;;11.30;79.20;;;;;;5068846;28;37753;-57
2022/04/09 11:26:17;;;;;;;11.27;2.15;;;11.10;81.40;;;;;;5069443;28;36951;-57
2022/04/09 11:28:45;;;;;;;8.35;1.45;;;11.00;81.10;;;;;;5069150;28;39693;-57
2022/04/09 11:31:12;;;;;;;8.98;2.00;;;10.80;80.60;;;;;;5067204;28;37789;-58
2022/04/09 11:33:57;;;;;;;6.88;1.20;;;10.50;81.10;;;;;;5066746;28;38467;-57
2022/04/09 11:36:25;;;;;;;7.85;1.20;;;10.30;82.20;;;;;;5067883;28;37007;-57
2022/04/09 11:38:52;;;;;;;7.13;1.73;;;10.10;85.60;;;;;;5068160;28;37457;-57
2022/04/09 11:41:20;;;;;;;11.48;1.58;;;10.00;86.50;;;;;;5068472;28;39904;-57
2022/04/09 11:43:48;;;;;;;17.45;1.92;;;9.80;87.40;;;;;;5067807;28;37722;-57
2022/04/09 11:46:15;;;;;;;9.52;1.55;;;9.90;90.10;;;;;;5067243;28;36580;-57
2022/04/09 11:48:43;;;;;;;6.53;1.30;;;10.20;91.10;;;;;;5068462;28;38592;-57
2022/04/09 11:51:19;;;;;;;5.78;1.10;;;10.40;90.30;;;;;;5067921;28;37998;-57
2022/04/09 11:53:47;;;;;;;7.75;1.15;;;10.30;86.20;;;;;;5067392;28;38074;-51
2022/04/09 11:56:14;;;;;;;6.65;1.00;;;10.10;86.80;;;;;;5068084;28;36609;-51
2022/04/09 11:58:42;;;;;;;7.20;1.00;;;9.80;87.50;;;;;;5059687;28;37581;-52
2022/04/09 12:01:10;;;;;;;4.50;0.90;;;9.60;88.70;;;;;;5064157;28;39066;-54
2022/04/09 12:03:38;;;;;;;6.93;1.30;;;9.80;91.00;;;;;;5066901;28;37730;-51
2022/04/09 12:06:06;;;;;;;6.13;0.80;;;10.10;91.30;;;;;;5065742;28;36402;-52
2022/04/09 12:08:36;;;;;;;4.20;1.00;;;10.30;89.80;;;;;;5067361;28;38595;-51
2022/04/09 12:11:13;;;;;;;7.85;2.20;;;10.30;88.00;;;;;;5066755;28;37079;-50
2022/04/09 12:13:42;;;;;;;4.75;0.90;;;10.50;88.30;;;;;;5063015;28;37338;-49
2022/04/09 12:16:17;;;;;;;5.95;0.90;;;10.70;87.30;;;;;;5064301;28;40385;-49
2022/04/09 12:18:46;;;;;;;6.68;1.00;;;10.80;86.60;;;;;;5065814;28;37441;-51
2022/04/09 12:21:21;;;;;;;5.57;1.40;;;10.60;84.50;;;;;;5066777;28;36975;-50
2022/04/09 12:24:05;;;;;;;6.35;1.10;;;10.80;85.50;;;;;;5066845;28;38698;-51
2022/04/09 12:26:34;;;;;;;5.28;1.00;;;10.80;85.10;;;;;;5067490;28;39025;-49
2022/04/09 12:29:09;;;;;;;6.45;1.00;;;10.80;84.80;;;;;;5067215;28;38092;-49
2022/04/09 12:31:37;;;;;;;4.78;0.98;;;10.80;85.30;;;;;;5067592;28;41075;-48
2022/04/09 12:34:05;;;;;;;9.27;1.38;;;10.80;86.10;;;;;;5065694;28;38594;-51
2022/04/09 12:36:32;;;;;;;8.07;1.30;;;10.80;86.90;;;;;;5066622;28;36441;-51
2022/04/09 12:39:01;;;;;;;8.68;2.03;;;10.90;86.60;;;;;;5067249;28;37358;-51
2022/04/09 12:41:45;;;;;;;7.82;1.45;;;11.00;87.00;;;;;;5066396;28;39032;-51
2022/04/09 12:44:25;;;;;;;9.10;1.60;;;11.20;86.30;;;;;;5067951;28;37702;-52
2022/04/09 12:46:54;;;;;;;6.32;1.23;;;11.20;84.60;;;;;;5066892;28;36492;-52
2022/04/09 12:49:26;;;;;;;5.97;1.10;;;11.30;85.70;;;;;;5065366;28;38507;-52
2022/04/09 12:51:53;;;;;;;6.32;1.17;;;11.40;84.00;;;;;;5065828;28;39695;-57
2022/04/09 12:54:23;;;;;;;7.75;1.65;;;11.30;83.40;;;;;;5064957;28;36694;-56
2022/04/09 12:56:50;;;;;;;4.63;1.15;;;11.20;83.60;;;;;;5065731;28;36388;-57
2022/04/09 12:59:18;;;;;;;6.53;1.40;;;11.10;83.60;;;;;;5065902;28;36436;-57
2022/04/09 13:01:47;;;;;;;6.85;1.13;;;11.00;82.60;;;;;;5065386;28;38060;-57
2022/04/09 13:04:14;;;;;;;11.07;1.40;;;10.90;82.70;;;;;;5064609;28;37115;-57